Livermore, CA

8:41 PM PST on November 26, 2014 (GMT -0800)
KCALIVER27 | Change Station
CLOSE
Current Station
Personal Weather Station
Location: Livermore, CA
Elevation: 571 ft
Nearby Weather Stations

Elev 571 ft 37.67 °N, 121.74 °W | Updated 3 seconds ago

Clear
Clear
49.0 °F
Feels Like 49 °F
N
0.0
Wind Variable Wind from North
Gusts 0.0 mph

Today
High -- | Low -- °F
--% Chance of Precip.
Yesterday
High -- | Low -- °F
Precip. -- in
6:58 AM 4:49 PM
Waxing Crescent, 25% visible
Pressure 30.22 in
Visibility 7.0 miles
Clouds Clear
Windchill 49 °F
Dew Point 41 °F
Humidity 75%
Rainfall 0.00 in
Snow Depth Not available.
UV 0 out of 12
Pollen 2.50 out of 12
Air Quality Not available.
Flu Activity Not available.
METAR KLVK 270353Z 00000KT 7SM CLR 12/07 A3022 RMK AO2 SLP234 T01220072

More Conditions Fewer Conditions

Pressure 30.22 in
Visibility 7.0 miles
Clouds Clear
Windchill 49 °F
Dew Point 41 °F
Humidity 75%
Rainfall 0.00 in
Snow Depth Not available.
UV 0 out of 12
Pollen 2.50 out of 12
Air Quality Not available.
Flu Activity Not available.
METAR KLVK 270353Z 00000KT 7SM CLR 12/07 A3022 RMK AO2 SLP234 T01220072

More Conditions Fewer Conditions

10-Day Weather Forecast

Almanac

Astronomy

Nov. 26, 2014 Rise Set
Actual Time
Civil Twilight
Nautical Twilight
Astronomical Twilight
Moon
Length of Visible Light
Length of Day
Tomorrow will be .
, % of the Moon is Illuminated

Today's Extremes

State Highs State Lows

Community

WunderPhotos

Upload Photos

1,773,959 photos uploaded!

WunderBlogs® & News

Nearby

Air Quality

  Air Quality AQ Index Pollutant
Not available.

Snow Depth

Station Depth Elevation

Earthquake Activity

City Distance Mag. Time & Date
Minimum magnitude displayed is 2.5.

Coastal Water Temperatures

Place Temperature

Nearby Weather Stations